This is the latest recevied weather packets stored in our database for station/object K1RTA-1. If no packets are shown the sender has not sent any weather packets the latest 1 day(s).
| Time | Temp. | Humidity | Pressure | Rain* | Wind** | Luminosity | Snow |
|---|---|---|---|---|---|---|---|
| 1778025983 | 15° C | 73% | 1013 hPa | 0 mm | 3.58 m/s, 217° | - | - |
| 1778025084 | 15.56° C | 73% | 1013 hPa | 0 mm | 4.02 m/s, 223° | - | - |
| 1778024183 | 15.56° C | 73% | 1012.8 hPa | 0 mm | 4.47 m/s, 228° | - | - |
| 1778023283 | 15.56° C | 75% | 1012.7 hPa | 0 mm | 4.47 m/s, 224° | - | - |
| 1778022383 | 15.56° C | 77% | 1012.7 hPa | 0 mm | 4.47 m/s, 222° | - | - |
| 1778021484 | 15.56° C | 76% | 1012.5 hPa | 0 mm | 4.47 m/s, 219° | - | - |
| 1778020583 | 15.56° C | 76% | 1012.3 hPa | 0 mm | 4.47 m/s, 218° | - | - |
| 1778019684 | 16.11° C | 75% | 1012.2 hPa | 0 mm | 4.02 m/s, 223° | - | - |
| 1778018784 | 16.11° C | 75% | 1012.3 hPa | 0 mm | 3.58 m/s, 227° | - | - |
| 1778017884 | 16.11° C | 75% | 1012 hPa | 0 mm | 4.47 m/s, 215° | - | - |
| 1778016983 | 16.11° C | 75% | 1012.3 hPa | 0 mm | 4.92 m/s, 214° | - | - |
| 1778016083 | 16.11° C | 75% | 1012 hPa | 0 mm | 5.36 m/s, 211° | - | - |
| 1778015184 | 16.67° C | 73% | 1012.1 hPa | 0 mm | 5.36 m/s, 212° | - | - |
| 1778014283 | 17.22° C | 72% | 1011.7 hPa | 0 mm | 4.47 m/s, 213° | - | - |
| 1778013383 | 17.22° C | 72% | 1011.9 hPa | 0 mm | 5.81 m/s, 212° | - | - |
| 1778012484 | 17.78° C | 71% | 1011.8 hPa | 0 mm | 5.36 m/s, 216° | - | - |
| 1778011583 | 17.78° C | 70% | 1011.9 hPa | 0 mm | 5.36 m/s, 217° | - | - |
| 1778010684 | 18.33° C | 69% | 1012 hPa | 0 mm | 5.81 m/s, 217° | - | - |
| 1778009785 | 18.33° C | 69% | 1012 hPa | 0 mm | 4.92 m/s, 215° | - | - |
| 1778008883 | 19.44° C | 66% | 1012.1 hPa | 0 mm | 3.58 m/s, 209° | - | - |
| 1778007984 | 19.44° C | 67% | 1012 hPa | 0 mm | 4.02 m/s, 211° | - | - |
| 1778007083 | 19.44° C | 67% | 1012.4 hPa | 0 mm | 3.58 m/s, 205° | - | - |
| 1778006183 | 19.44° C | 67% | 1012.4 hPa | 0 mm | 4.02 m/s, 208° | - | - |
| 1778005284 | 19.44° C | 68% | 1012.5 hPa | 0 mm | 4.02 m/s, 206° | - | - |
| 1778004384 | 19.44° C | 66% | 1012.5 hPa | 0 mm | 4.02 m/s, 210° | - | - |
* Rain latest hour (hover to see other rain measurements)
** Current wind speed in m/s (hover to see current wind gust speed)